Time;durP1;ratioP1;P1;durP2;ratioP2;P2;SDS_P1;SDS_P2;PMS_P1;PMS_P2;Temp;Humidity;BMP_temperature;BMP_pressure;BME280_temperature;BME280_humidity;BME280_pressure;Samples;Min_cycle;Max_cycle;Signal;HPM_P1;HPM_P2
2022/08/11 00:02:31;;;;;;;7.75;5.95;;;;;;;15.74;62.43;101143.40;2105969;83;31969;-63
2022/08/11 00:05:46;;;;;;;10.80;6.30;;;;;;;15.68;62.16;101141.53;2145284;81;34039;-66
2022/08/11 00:08:49;;;;;;;;;;;;;;;15.59;62.24;101141.59;2056082;84;29000;-62
2022/08/11 00:11:55;;;;;;;10.60;5.97;;;;;;;15.53;62.54;101144.16;2069061;85;27807;-62
2022/08/11 00:14:58;;;;;;;;;;;;;;;15.43;62.91;101145.63;2047825;85;28724;-67
2022/08/11 00:18:00;;;;;;;8.58;6.03;;;;;;;15.36;63.07;101145.10;2091458;83;31066;-65
2022/08/11 00:21:02;;;;;;;9.68;6.15;;;;;;;15.29;63.05;101149.13;2093849;83;33766;-61
2022/08/11 00:24:04;;;;;;;7.47;5.17;;;;;;;15.25;63.07;101146.19;2110421;82;29428;-67
2022/08/11 00:27:06;;;;;;;7.85;5.60;;;;;;;15.20;63.29;101147.80;2142988;81;27705;-61
2022/08/11 00:30:10;;;;;;;8.63;5.65;;;;;;;15.12;63.33;101144.18;2157822;81;28698;-61
2022/08/11 00:33:12;;;;;;;7.67;5.05;;;;;;;15.06;63.47;101135.55;2132786;80;31014;-64
2022/08/11 00:36:19;;;;;;;8.20;5.53;;;;;;;14.98;63.51;101137.30;2127448;82;33602;-61
2022/08/11 00:39:22;;;;;;;7.10;6.00;;;;;;;14.92;63.79;101137.65;2131206;82;29393;-61
2022/08/11 00:43:03;;;;;;;7.85;5.00;;;;;;;14.85;63.79;101142.02;2141276;82;27747;-61
2022/08/11 00:46:21;;;;;;;7.17;5.33;;;;;;;14.82;64.03;101134.58;2073380;85;28699;-60
2022/08/11 00:50:04;;;;;;;7.03;5.08;;;;;;;14.77;63.87;101133.95;2069183;85;32207;-60
2022/08/11 00:53:39;;;;;;;10.58;5.50;;;;;;;14.71;64.02;101137.84;2061578;85;33528;-71
2022/08/11 00:57:20;;;;;;;8.60;5.43;;;;;;;14.63;64.03;101144.11;2076303;85;29524;-62
2022/08/11 01:00:25;;;;;;;11.95;5.80;;;;;;;14.54;64.46;101139.59;2072660;85;27837;-61
2022/08/11 01:03:49;;;;;;;10.13;5.05;;;;;;;14.47;64.31;101139.53;2083634;84;29535;-61
2022/08/11 01:07:38;;;;;;;8.25;4.87;;;;;;;14.42;64.38;101143.79;2081147;84;31091;-65
2022/08/11 01:11:00;;;;;;;6.67;5.03;;;;;;;14.37;64.48;101138.25;2082995;84;33718;-60
2022/08/11 01:14:25;;;;;;;8.90;5.65;;;;;;;14.28;64.64;101137.80;2080004;84;30238;-61
2022/08/11 01:18:09;;;;;;;5.58;5.08;;;;;;;14.22;64.74;101135.41;2084258;83;32922;-61
2022/08/11 01:21:54;;;;;;;5.58;4.67;;;;;;;14.16;64.91;101134.36;2064677;84;28714;-62
2022/08/11 01:25:25;;;;;;;8.15;5.33;;;;;;;14.09;65.06;101133.80;2102971;82;31845;-61
2022/08/11 01:29:10;;;;;;;8.00;5.00;;;;;;;14.03;65.25;101137.28;2072107;83;32872;-60
2022/08/11 01:32:45;;;;;;;6.53;4.80;;;;;;;13.96;65.40;101138.08;2080841;84;29790;-61
2022/08/11 01:36:29;;;;;;;6.20;4.50;;;;;;;13.88;65.83;101146.55;2122543;81;27694;-61
2022/08/11 01:40:14;;;;;;;8.08;5.30;;;;;;;13.87;65.98;101143.94;2107631;82;28875;-60
2022/08/11 01:51:18;;;;;;;5.85;4.22;;;;;;;13.74;66.14;101136.45;2009243;87;29629;-64
2022/08/11 01:54:34;;;;;;;9.18;4.60;;;;;;;13.69;66.05;101137.17;2010385;87;27724;-69
2022/08/11 01:57:41;;;;;;;6.80;4.65;;;;;;;13.62;66.50;101137.95;2014700;86;29689;-62
2022/08/11 02:01:03;;;;;;;5.25;4.70;;;;;;;13.58;66.50;101138.15;2012984;87;32277;-61
2022/08/11 02:04:37;;;;;;;7.65;4.55;;;;;;;13.53;66.45;101149.15;2007816;87;32792;-60
2022/08/11 02:08:10;;;;;;;8.00;4.45;;;;;;;13.50;66.74;101136.72;2026825;86;31294;-61
2022/08/11 02:11:30;;;;;;;6.28;5.17;;;;;;;13.45;66.76;101140.59;2019266;86;27801;-60
2022/08/11 02:14:59;;;;;;;9.90;4.53;;;;;;;13.42;67.09;101137.55;2025658;86;28769;-61
2022/08/11 02:18:09;;;;;;;5.55;4.35;;;;;;;13.38;67.08;101133.25;2029817;86;31441;-60
2022/08/11 02:24:43;;;;;;;5.95;4.60;;;;;;;13.31;67.06;101141.20;2040179;86;29746;-62
2022/08/11 02:27:58;;;;;;;7.50;4.37;;;;;;;13.25;67.36;101128.92;2079589;81;27921;-60
2022/08/11 02:35:02;;;;;;;7.20;3.90;;;;;;;13.19;67.34;101131.89;2081377;84;32380;-60
2022/08/11 02:38:28;;;;;;;4.45;4.05;;;;;;;13.15;67.46;101141.08;2072529;83;33932;-60
2022/08/11 02:45:32;;;;;;;6.40;4.20;;;;;;;13.05;67.63;101133.42;2064043;84;27727;-61
2022/08/11 02:53:02;;;;;;;6.58;4.12;;;;;;;12.97;67.83;101129.34;2154396;81;32358;-61
2022/08/11 02:56:43;;;;;;;6.08;4.25;;;;;;;12.92;67.80;101144.34;2121917;81;34215;-61
2022/08/11 03:00:11;;;;;;;6.25;4.60;;;;;;;12.88;67.81;101137.36;2143763;81;29422;-61
2022/08/11 03:03:24;;;;;;;5.25;4.37;;;;;;;12.83;67.90;101132.20;2113026;81;27664;-68
2022/08/11 03:06:37;;;;;;;4.55;4.15;;;;;;;12.81;67.95;101134.56;2079422;83;29307;-62
2022/08/11 03:10:01;;;;;;;6.15;4.78;;;;;;;12.77;68.15;101135.16;2122336;83;31638;-61
2022/08/11 03:17:06;;;;;;;4.80;4.25;;;;;;;12.71;68.35;101144.86;2086995;82;30247;-64
2022/08/11 03:20:22;;;;;;;8.53;4.78;;;;;;;12.68;68.38;101143.16;2091429;82;27802;-62
2022/08/11 03:24:00;;;;;;;9.35;4.97;;;;;;;12.64;68.47;101142.03;2107826;83;29132;-62
2022/08/11 03:27:45;;;;;;;7.42;4.30;;;;;;;12.60;68.57;101142.16;2097427;83;31785;-61
2022/08/11 03:31:23;;;;;;;9.20;4.53;;;;;;;12.57;68.55;101145.47;2109741;83;33026;-60
2022/08/11 03:34:25;;;;;;;7.20;4.22;;;;;;;12.55;68.52;101146.00;2116230;82;29205;-61
2022/08/11 03:37:50;;;;;;;6.45;5.05;;;;;;;12.54;68.64;101150.97;2081545;82;27692;-62
2022/08/11 03:44:43;;;;;;;5.53;4.42;;;;;;;12.52;68.92;101148.37;2108125;82;31241;-61
2022/08/11 03:48:20;;;;;;;6.60;4.33;;;;;;;12.51;68.97;101145.73;2095426;82;33444;-62
2022/08/11 03:51:57;;;;;;;8.05;4.85;;;;;;;12.52;69.00;101145.67;2087555;83;29457;-61
2022/08/11 03:55:28;;;;;;;10.78;5.45;;;;;;;12.53;69.04;101138.02;2090213;82;27698;-60
2022/08/11 03:59:05;;;;;;;7.08;4.78;;;;;;;12.55;69.13;101140.62;2096649;82;29203;-63
2022/08/11 04:02:46;;;;;;;5.12;4.60;;;;;;;12.57;69.36;101143.67;2118865;82;31115;-60
2022/08/11 04:06:35;;;;;;;6.85;4.60;;;;;;;12.59;69.43;101136.87;2129652;81;34298;-60
2022/08/11 04:10:12;;;;;;;5.50;3.98;;;;;;;12.64;69.47;101133.97;2132570;82;29107;-61
2022/08/11 04:13:50;;;;;;;7.17;4.55;;;;;;;12.69;69.62;101139.53;2137651;82;27646;-61
2022/08/11 04:17:09;;;;;;;8.68;4.10;;;;;;;12.74;69.61;101138.01;2135602;82;28760;-65
2022/08/11 04:20:18;;;;;;;8.78;4.85;;;;;;;12.80;69.72;101138.20;2133878;81;33113;-62
2022/08/11 04:23:25;;;;;;;7.95;4.58;;;;;;;12.86;69.81;101137.89;2131879;82;33271;-61
2022/08/11 04:26:53;;;;;;;15.83;5.12;;;;;;;12.91;69.78;101139.91;2134645;82;29078;-63
2022/08/11 04:30:23;;;;;;;6.90;5.35;;;;;;;12.98;69.88;101144.53;2131206;82;27728;-62
2022/08/11 04:34:07;;;;;;;8.95;5.00;;;;;;;13.05;70.02;101140.62;2100097;81;28939;-62
2022/08/11 04:37:35;;;;;;;10.72;5.45;;;;;;;13.14;70.08;101132.60;2134264;82;30995;-62
2022/08/11 04:41:15;;;;;;;9.38;5.33;;;;;;;13.24;70.08;101142.46;2129965;82;33018;-65
2022/08/11 04:45:01;;;;;;;8.00;4.87;;;;;;;13.34;70.24;101145.10;2132319;82;29167;-63
2022/08/11 05:01:39;;;;;;;11.80;5.15;;;;;;;13.57;70.32;101144.02;2134840;82;30103;-67
2022/08/11 05:03:21;;;;;;;17.90;7.55;;;;;;;14.19;70.87;101142.78;2133930;81;30332;-61
2022/08/11 05:07:04;;;;;;;14.33;7.25;;;;;;;14.95;71.39;101138.84;2121157;83;27677;-65
2022/08/11 05:10:48;;;;;;;13.90;6.60;;;;;;;15.92;70.64;101131.16;2121837;83;29192;-61
2022/08/11 05:34:57;;;;;;;7.25;4.62;;;;;;;18.93;63.92;101151.13;2018428;86;33369;-61
2022/08/11 05:58:24;;;;;;;4.70;3.52;;;;;;;20.48;60.13;101165.06;2092960;83;28470;-66
2022/08/11 06:01:31;;;;;;;7.37;3.50;;;;;;;20.72;59.45;101172.28;2105979;83;29069;-66
2022/08/11 06:04:33;;;;;;;9.50;4.22;;;;;;;20.95;59.11;101164.17;2107781;82;31432;-61
2022/08/11 06:07:34;;;;;;;6.28;3.58;;;;;;;21.19;58.88;101169.52;2094489;83;33932;-61
2022/08/11 06:10:41;;;;;;;10.43;4.33;;;;;;;21.49;58.24;101174.81;2111761;83;28936;-61
2022/08/11 06:13:44;;;;;;;8.48;4.22;;;;;;;21.78;57.51;101175.64;2111244;83;27804;-61
2022/08/11 06:16:51;;;;;;;5.42;3.50;;;;;;;22.00;56.92;101176.58;2110610;83;28501;-65
2022/08/11 06:20:11;;;;;;;8.68;4.85;;;;;;;22.25;56.30;101172.64;2106778;82;31477;-63
2022/08/11 06:23:13;;;;;;;7.30;2.98;;;;;;;22.61;55.65;101176.44;2117077;82;33003;-69
2022/08/11 06:26:15;;;;;;;7.12;3.92;;;;;;;23.05;54.82;101173.05;2179336;80;29186;-60
2022/08/11 06:29:17;;;;;;;9.75;4.08;;;;;;;23.55;53.84;101173.24;2167316;79;27781;-61
2022/08/11 06:32:22;;;;;;;9.00;3.58;;;;;;;24.13;54.11;101175.23;2174528;79;30065;-61
2022/08/11 06:35:50;;;;;;;6.83;3.00;;;;;;;24.83;53.34;101169.56;2177825;80;31766;-61
2022/08/11 06:39:17;;;;;;;9.58;3.55;;;;;;;25.52;51.72;101171.20;2133818;83;32944;-60
2022/08/11 06:42:47;;;;;;;9.43;3.30;;;;;;;26.30;50.90;101165.16;2144632;82;29070;-61
2022/08/11 06:46:07;;;;;;;4.85;3.15;;;;;;;26.98;49.66;101167.73;2134101;82;27739;-61
2022/08/11 06:52:37;;;;;;;6.00;3.27;;;;;;;27.90;46.81;101146.94;2121870;81;31940;-61
2022/08/11 07:02:34;;;;;;;9.80;2.87;;;;;;;29.43;45.12;101150.05;2098647;82;28509;-61
2022/08/11 07:06:12;;;;;;;5.00;3.25;;;;;;;29.96;43.68;101144.75;2088352;82;29652;-66
2022/08/11 07:16:09;;;;;;;6.17;3.33;;;;;;;30.77;40.77;101135.94;2109883;81;30216;-62
2022/08/11 07:28:54;;;;;;;9.48;3.15;;;;;;;30.99;39.60;101134.67;2109494;82;29948;-65
2022/08/11 07:29:20;;;;;;;3.45;2.47;;;;;;;31.47;39.26;101128.70;2139224;81;33894;-60
2022/08/11 07:32:29;;;;;;;7.15;2.62;;;;;;;31.74;37.40;101126.28;2127648;82;29139;-62
2022/08/11 07:35:42;;;;;;;2.70;2.45;;;;;;;31.69;36.45;101132.36;2145407;80;27775;-62
2022/08/11 07:38:50;;;;;;;3.25;2.37;;;;;;;31.60;36.04;101126.62;2186626;80;29901;-62
2022/08/11 07:41:55;;;;;;;6.10;2.80;;;;;;;31.43;36.24;101126.85;2185632;80;31971;-62
2022/08/11 07:55:06;;;;;;;5.67;2.50;;;;;;;31.30;35.14;101123.39;2114502;82;30080;-64
2022/08/11 08:18:15;;;;;;;2.92;2.47;;;;;;;30.70;33.37;101113.71;2133630;81;33785;-67
2022/08/11 08:21:16;;;;;;;5.65;2.40;;;;;;;30.91;33.29;101113.48;2137690;80;29428;-65
2022/08/11 08:24:19;;;;;;;4.47;2.40;;;;;;;30.97;33.38;101113.23;2157016;80;27709;-67
2022/08/11 08:27:21;;;;;;;4.75;2.55;;;;;;;31.17;32.69;101113.53;2158965;80;29421;-71
2022/08/11 08:33:45;;;;;;;2.47;1.95;;;;;;;31.07;31.58;101102.72;2180634;80;34298;-63
2022/08/11 08:36:49;;;;;;;5.47;2.50;;;;;;;31.01;32.51;101094.67;2187333;80;30176;-63
2022/08/11 08:39:50;;;;;;;;;;;;;;;31.24;32.08;101097.00;2163272;79;27825;-62
2022/08/11 08:42:58;;;;;;;3.35;1.80;;;;;;;31.41;30.42;101098.50;2141642;80;27672;-63
2022/08/11 08:46:00;;;;;;;5.92;1.85;;;;;;;31.05;30.17;101096.52;2171850;81;32240;-65
2022/08/11 08:49:03;;;;;;;4.37;2.10;;;;;;;30.80;30.78;101092.69;2176364;79;33419;-62
2022/08/11 08:52:05;;;;;;;3.30;2.00;;;;;;;30.72;29.70;101099.17;2120124;81;29292;-65
2022/08/11 08:55:11;;;;;;;4.42;1.90;;;;;;;30.37;30.50;101089.12;2139505;82;27618;-67
2022/08/11 08:58:15;;;;;;;3.37;2.00;;;;;;;30.16;30.87;101086.55;2116502;81;29506;-64
2022/08/11 09:01:19;;;;;;;3.42;2.00;;;;;;;30.21;31.19;101086.53;2099501;82;31651;-62
2022/08/11 09:04:21;;;;;;;2.90;2.00;;;;;;;30.22;31.62;101082.72;2114065;82;33412;-65
2022/08/11 09:07:25;;;;;;;4.30;1.90;;;;;;;30.17;30.77;101083.28;2118735;82;29425;-63
2022/08/11 09:10:29;;;;;;;2.70;2.10;;;;;;;30.08;31.35;101084.39;2101952;83;27705;-69
2022/08/11 09:13:32;;;;;;;1.98;1.82;;;;;;;29.86;30.70;101083.67;2098469;82;33206;-68
2022/08/11 09:16:38;;;;;;;4.08;2.02;;;;;;;29.75;30.68;101086.88;2118029;82;31067;-63
2022/08/11 09:19:40;;;;;;;5.60;2.10;;;;;;;29.50;31.20;101080.66;2120517;82;33667;-63
2022/08/11 09:29:23;;;;;;;3.37;1.95;;;;;;;29.02;30.71;101081.57;2104589;82;29966;-64
2022/08/11 09:32:27;;;;;;;4.67;1.60;;;;;;;28.66;30.69;101077.87;2108912;82;31493;-65
2022/08/11 09:35:35;;;;;;;3.22;1.80;;;;;;;28.52;31.01;101080.82;2102313;83;34266;-68
2022/08/11 09:41:56;;;;;;;3.45;1.55;;;;;;;28.38;31.66;101081.54;2109250;83;28179;-61
2022/08/11 09:44:57;;;;;;;1.72;1.62;;;;;;;28.50;31.39;101092.53;2114882;83;28670;-63
2022/08/11 09:48:00;;;;;;;4.60;1.80;;;;;;;28.42;31.38;101089.28;2121217;82;31469;-64
2022/08/11 09:51:03;;;;;;;2.17;1.70;;;;;;;28.44;31.32;101081.70;2100568;82;33388;-62
2022/08/11 09:54:05;;;;;;;3.33;1.55;;;;;;;28.47;32.07;101086.86;2135047;82;29625;-62
2022/08/11 10:00:36;;;;;;;3.30;1.40;;;;;;;28.54;31.46;101080.13;2157173;82;28964;-62
2022/08/11 10:03:38;;;;;;;2.47;1.52;;;;;;;28.31;31.45;101077.25;2199426;79;31119;-63
2022/08/11 10:10:01;;;;;;;4.12;1.60;;;;;;;27.80;31.49;101068.62;2138972;80;29459;-65
2022/08/11 10:13:10;;;;;;;4.08;1.80;;;;;;;27.60;31.55;101070.84;2154530;80;36321;-63
2022/08/11 10:16:11;;;;;;;6.17;1.55;;;;;;;27.44;31.94;101055.11;2159996;80;29537;-61
2022/08/11 10:19:18;;;;;;;3.05;1.60;;;;;;;27.37;32.58;101046.67;2191906;80;31385;-63
2022/08/11 10:29:00;;;;;;;2.33;1.50;;;;;;;27.26;32.18;101042.34;2079386;83;27777;-65
2022/08/11 10:35:25;;;;;;;3.45;1.50;;;;;;;27.22;32.58;101035.45;2141513;80;32248;-65
2022/08/11 10:38:27;;;;;;;2.58;1.47;;;;;;;26.99;32.34;101040.70;2146655;82;33010;-64
2022/08/11 10:44:55;;;;;;;3.87;1.42;;;;;;;26.52;32.99;101036.00;2123151;82;27744;-63
2022/08/11 10:47:58;;;;;;;2.33;1.30;;;;;;;26.49;33.43;101025.33;2125308;82;28112;-66
2022/08/11 10:51:16;;;;;;;7.20;1.47;;;;;;;26.45;33.45;101026.70;2135384;81;31107;-66
2022/08/11 11:00:59;;;;;;;2.08;1.32;;;;;;;26.62;33.64;101023.52;2114386;80;27791;-64
2022/08/11 11:04:10;;;;;;;1.42;1.20;;;;;;;26.68;33.32;101020.13;2119818;81;29174;-64
2022/08/11 11:07:22;;;;;;;1.60;1.50;;;;;;;26.67;33.39;101027.14;2121229;81;31085;-64
2022/08/11 11:10:23;;;;;;;5.67;1.60;;;;;;;26.62;33.85;101019.92;2114973;82;33016;-67
2022/08/11 11:20:07;;;;;;;4.37;1.40;;;;;;;26.69;33.56;101009.48;2123651;80;29525;-62
2022/08/11 11:23:32;;;;;;;3.83;1.43;;;;;;;26.74;33.18;101011.73;2139070;80;31145;-65
2022/08/11 11:27:03;;;;;;;3.27;1.62;;;;;;;26.67;33.34;101006.03;2146649;80;33779;-63
2022/08/11 11:30:08;;;;;;;1.87;1.40;;;;;;;26.57;32.53;100998.41;2122339;83;30229;-60
2022/08/11 11:33:30;;;;;;;2.55;1.62;;;;;;;26.52;32.79;100993.94;2143207;81;27626;-60
2022/08/11 11:36:57;;;;;;;1.55;1.40;;;;;;;26.64;33.36;100991.77;2154620;82;29111;-59
2022/08/11 11:39:58;;;;;;;2.45;1.60;;;;;;;26.77;32.61;100991.28;2142850;81;32229;-60
2022/08/11 11:43:00;;;;;;;4.10;1.52;;;;;;;26.79;32.85;100992.89;2150631;80;33362;-70
2022/08/11 11:46:03;;;;;;;2.90;1.80;;;;;;;26.84;32.98;100991.86;2101851;82;29208;-61
2022/08/11 11:49:08;;;;;;;1.67;1.57;;;;;;;26.65;32.76;100982.47;2112296;82;27690;-60
2022/08/11 11:52:16;;;;;;;1.55;1.42;;;;;;;26.56;33.24;100986.22;2106143;83;28885;-60
2022/08/11 11:55:20;;;;;;;3.02;2.00;;;;;;;26.64;33.44;100981.62;2105710;82;32097;-60
2022/08/11 12:01:44;;;;;;;2.20;1.30;;;;;;;26.53;32.95;100964.91;2156280;82;30339;-60
2022/08/11 12:04:47;;;;;;;12.35;2.27;;;;;;;26.40;32.64;100971.38;2156697;82;27734;-61
2022/08/11 12:14:31;;;;;;;2.08;1.45;;;;;;;26.32;32.81;100961.20;2185482;80;33585;-61
2022/08/11 12:17:34;;;;;;;4.45;1.52;;;;;;;26.39;33.04;100954.02;2133124;80;29386;-60
2022/08/11 12:20:38;;;;;;;6.65;1.40;;;;;;;26.46;32.13;100947.88;2118062;82;27689;-61
2022/08/11 12:27:22;;;;;;;1.47;1.30;;;;;;;26.52;32.32;100946.69;2165709;79;32209;-59
2022/08/11 12:30:24;;;;;;;1.80;1.50;;;;;;;26.47;32.47;100944.09;2143126;80;33223;-60
2022/08/11 12:33:26;;;;;;;3.15;1.50;;;;;;;26.43;33.00;100949.56;2142243;80;29074;-66
2022/08/11 12:36:32;;;;;;;3.12;1.65;;;;;;;26.36;32.63;100941.13;2140348;80;27673;-61
2022/08/11 12:46:35;;;;;;;4.78;1.37;;;;;;;26.44;32.71;100928.81;2123026;82;34500;-61
2022/08/11 12:53:06;;;;;;;2.10;1.30;;;;;;;26.56;32.65;100915.61;2157570;80;27735;-65
2022/08/11 13:06:10;;;;;;;1.67;1.57;;;;;;;26.46;32.01;100903.91;2126602;82;30347;-66
2022/08/11 13:09:13;;;;;;;2.45;1.20;;;;;;;26.43;31.56;100898.24;2159472;80;27782;-61
2022/08/11 13:15:35;;;;;;;1.77;1.45;;;;;;;26.29;32.14;100897.50;2136879;80;31497;-62
2022/08/11 13:18:37;;;;;;;3.95;1.55;;;;;;;26.26;31.40;100897.30;2134427;80;33069;-60
2022/08/11 13:21:38;;;;;;;2.47;1.60;;;;;;;26.26;32.00;100890.43;2116596;80;29415;-62
2022/08/11 13:24:40;;;;;;;2.15;1.32;;;;;;;26.31;31.71;100891.33;2126722;80;27656;-60
2022/08/11 13:27:44;;;;;;;2.98;1.40;;;;;;;26.35;32.25;100888.58;2160708;79;29059;-61
2022/08/11 13:34:09;;;;;;;2.67;1.20;;;;;;;26.43;31.32;100883.63;2141013;82;33434;-64
2022/08/11 13:37:13;;;;;;;3.02;1.30;;;;;;;26.51;31.37;100877.65;2149770;80;28967;-64
2022/08/11 13:40:16;;;;;;;1.60;1.37;;;;;;;26.58;31.25;100868.75;2124592;80;27808;-65
2022/08/11 13:43:20;;;;;;;2.55;1.50;;;;;;;26.64;31.77;100869.46;2156938;81;29509;-61
2022/08/11 13:46:23;;;;;;;5.67;1.40;;;;;;;26.67;31.36;100869.98;2139795;80;31713;-62
2022/08/11 13:49:25;;;;;;;3.08;1.20;;;;;;;26.67;30.89;100880.97;2137984;80;34280;-61
2022/08/11 13:52:27;;;;;;;1.57;1.00;;;;;;;26.54;30.95;100872.35;2141042;80;31264;-61
2022/08/11 13:55:32;;;;;;;1.35;1.15;;;;;;;26.32;30.82;100866.44;2121996;82;27703;-61
2022/08/11 13:58:33;;;;;;;;;;;;;;;26.10;31.19;100859.63;2112131;82;29527;-66
2022/08/11 14:01:38;;;;;;;1.40;1.30;;;;;;;25.96;31.50;100850.10;2121540;82;31135;-60
2022/08/11 14:04:54;;;;;;;1.40;1.20;;;;;;;25.87;31.46;100843.70;2114306;83;33865;-61
2022/08/11 14:08:17;;;;;;;1.40;1.30;;;;;;;25.85;31.48;100837.52;2109818;82;29782;-62
2022/08/11 14:14:51;;;;;;;2.15;1.20;;;;;;;25.97;31.59;100837.25;2154134;80;29352;-61
2022/08/11 14:18:08;;;;;;;3.95;1.60;;;;;;;26.01;31.69;100834.01;2130991;82;32551;-60
2022/08/11 14:24:40;;;;;;;3.90;1.40;;;;;;;26.20;31.37;100827.94;2116530;82;30456;-63
2022/08/11 14:27:43;;;;;;;1.70;1.25;;;;;;;26.31;31.18;100822.66;2118695;82;27794;-60
2022/08/11 14:30:54;;;;;;;2.50;1.40;;;;;;;26.41;31.27;100817.88;2127728;82;29929;-63
2022/08/11 14:34:01;;;;;;;2.37;1.20;;;;;;;26.54;31.52;100818.23;2099939;82;31495;-62
2022/08/11 14:37:12;;;;;;;1.50;1.15;;;;;;;26.64;31.06;100813.97;2097960;82;34123;-61
2022/08/11 14:47:03;;;;;;;3.60;1.35;;;;;;;26.66;31.00;100821.53;2117208;82;29461;-63
2022/08/11 14:50:01;;;;;;;1.75;1.25;;;;;;;26.49;31.23;100814.28;2144345;80;31077;-68
2022/08/11 14:53:08;;;;;;;3.23;1.30;;;;;;;26.41;31.18;100823.86;2131712;81;33819;-61
2022/08/11 14:59:30;;;;;;;3.20;1.35;;;;;;;26.31;30.45;100819.39;2155841;80;28299;-60
2022/08/11 15:05:55;;;;;;;5.42;1.45;;;;;;;26.33;30.53;100813.22;2130297;81;31677;-61
2022/08/11 15:08:56;;;;;;;2.15;1.52;;;;;;;26.37;30.85;100815.11;2134387;80;33102;-64
2022/08/11 15:12:07;;;;;;;4.58;1.60;;;;;;;26.45;30.79;100812.89;2129659;81;29712;-64
2022/08/11 15:18:31;;;;;;;4.92;1.40;;;;;;;26.50;31.22;100802.27;2115900;82;28666;-63
2022/08/11 15:24:50;;;;;;;2.55;1.55;;;;;;;26.32;31.11;100821.11;2017866;87;32995;-61
2022/08/11 15:37:55;;;;;;;2.05;1.62;;;;;;;25.79;32.05;100812.12;1931573;90;32122;-59
2022/08/11 15:47:44;;;;;;;2.35;1.60;;;;;;;25.52;31.66;100810.41;1937563;90;28260;-61
2022/08/11 15:50:50;;;;;;;2.35;1.30;;;;;;;25.49;31.52;100811.58;1931983;90;28721;-59
2022/08/11 15:53:55;;;;;;;2.05;1.10;;;;;;;25.50;30.95;100812.45;1916055;90;31881;-59
2022/08/11 15:57:00;;;;;;;5.80;1.42;;;;;;;25.51;31.11;100813.66;1923857;90;33722;-63
2022/08/11 16:06:45;;;;;;;3.47;1.22;;;;;;;25.53;31.49;100810.23;1973503;89;30048;-60
2022/08/11 16:10:01;;;;;;;1.50;1.15;;;;;;;25.53;31.33;100805.28;1960695;89;31839;-58
2022/08/11 16:16:14;;;;;;;4.80;2.00;;;;;;;25.55;31.79;100804.61;2081951;85;33784;-59
2022/08/11 16:19:18;;;;;;;6.20;1.62;;;;;;;25.53;31.97;100797.89;2067237;85;27691;-58
2022/08/11 16:22:34;;;;;;;1.70;1.57;;;;;;;25.50;31.95;100800.95;2076443;85;29152;-61
2022/08/11 16:25:34;;;;;;;1.65;1.37;;;;;;;25.48;32.19;100797.55;2065562;84;31437;-58
2022/08/11 16:28:36;;;;;;;4.28;1.50;;;;;;;25.44;31.88;100803.84;2034923;85;33000;-58
2022/08/11 16:31:40;;;;;;;3.50;1.50;;;;;;;25.40;31.95;100801.55;2037082;86;29331;-58
2022/08/11 16:38:38;;;;;;;2.12;1.42;;;;;;;25.37;31.69;100806.86;2040015;86;29511;-58
2022/08/11 16:48:06;;;;;;;2.35;1.47;;;;;;;25.34;31.73;100816.25;2084775;83;30567;-61
2022/08/11 16:51:09;;;;;;;;;;;;;;;25.40;31.38;100825.72;2105585;83;27725;-72
2022/08/11 16:54:12;;;;;;;3.08;1.00;;;;;;;25.44;31.80;100816.70;2085895;83;28416;-72
2022/08/11 17:00:47;;;;;;;1.77;1.22;;;;;;;25.53;31.87;100815.73;2117020;82;33794;-73
2022/08/11 17:14:16;;;;;;;3.25;1.70;;;;;;;24.92;35.95;100840.75;2137699;82;31493;-69
2022/08/11 17:17:31;;;;;;;5.15;1.52;;;;;;;24.54;36.20;100843.11;2094467;82;33793;-71
2022/08/11 17:20:33;;;;;;;8.68;1.12;;;;;;;24.24;36.81;100849.77;2102666;83;29862;-70
2022/08/11 17:23:51;;;;;;;2.12;1.07;;;;;;;23.96;37.57;100851.11;2106201;82;28042;-74
2022/08/11 17:26:57;;;;;;;2.15;1.20;;;;;;;23.72;37.92;100857.94;2083948;82;28373;-63
2022/08/11 17:30:04;;;;;;;2.65;1.30;;;;;;;23.48;39.39;100855.70;2108749;83;31119;-73
2022/08/11 17:36:25;;;;;;;4.05;1.42;;;;;;;23.11;40.03;100853.21;2096228;83;29545;-59
2022/08/11 17:39:29;;;;;;;1.85;1.12;;;;;;;22.95;40.59;100846.09;2090940;83;27701;-59
2022/08/11 17:49:18;;;;;;;5.10;1.42;;;;;;;22.54;41.72;100854.39;2125844;82;33378;-66
2022/08/11 18:05:55;;;;;;;3.87;1.35;;;;;;;22.18;42.90;100847.16;2118506;83;34063;-62
